Time;durP1;ratioP1;P1;durP2;ratioP2;P2;SDS_P1;SDS_P2;PMS_P1;PMS_P2;Temp;Humidity;BMP_temperature;BMP_pressure;BME280_temperature;BME280_humidity;BME280_pressure;Samples;Min_cycle;Max_cycle;Signal;HPM_P1;HPM_P2
2024/02/08 00:00:07;;;;;;;4.93;2.50;;;-0.50;99.90;;;;;;4956245;28;20035;-51
2024/02/08 00:02:33;;;;;;;9.15;2.33;;;-0.40;99.90;;;;;;4977115;28;20036;-51
2024/02/08 00:04:58;;;;;;;6.75;2.58;;;-0.40;99.90;;;;;;4985274;28;20029;-54
2024/02/08 00:07:24;;;;;;;7.25;1.90;;;-0.40;99.90;;;;;;4976000;28;20024;-50
2024/02/08 00:09:51;;;;;;;7.40;2.55;;;-0.40;99.90;;;;;;4928527;28;20059;-49
2024/02/08 00:12:16;;;;;;;5.10;1.83;;;-0.40;99.90;;;;;;4940631;28;20025;-49
2024/02/08 00:14:42;;;;;;;2.85;1.92;;;-0.40;99.90;;;;;;5010700;28;20083;-48
2024/02/08 00:17:08;;;;;;;7.05;2.85;;;-0.40;99.90;;;;;;4955654;28;20022;-55
2024/02/08 00:19:33;;;;;;;5.72;2.80;;;-0.40;99.90;;;;;;4948178;28;21885;-53
2024/02/08 00:21:59;;;;;;;5.70;2.42;;;-0.50;99.90;;;;;;4954140;28;20056;-52
2024/02/08 00:24:24;;;;;;;8.23;2.65;;;-0.50;99.90;;;;;;4987952;28;20433;-49
2024/02/08 00:26:50;;;;;;;7.13;2.42;;;-0.50;99.90;;;;;;5010173;28;20410;-47
2024/02/08 00:29:15;;;;;;;7.85;2.30;;;-0.50;99.90;;;;;;5004271;28;20681;-49
2024/02/08 00:31:42;;;;;;;5.90;2.22;;;-0.50;99.90;;;;;;5012760;28;20040;-51
2024/02/08 00:34:07;;;;;;;5.65;2.30;;;-0.50;99.90;;;;;;4998863;28;20036;-51
2024/02/08 00:36:33;;;;;;;7.43;2.28;;;-0.50;99.90;;;;;;4983440;28;20037;-50
2024/02/08 00:38:58;;;;;;;9.48;2.83;;;-0.60;99.90;;;;;;4978395;28;20115;-50
2024/02/08 00:41:24;;;;;;;5.32;2.40;;;-0.50;99.90;;;;;;5001871;28;21613;-50
2024/02/08 00:43:53;;;;;;;8.43;2.53;;;-0.60;99.90;;;;;;5008926;28;20409;-50
2024/02/08 00:46:19;;;;;;;9.20;2.65;;;-0.60;99.90;;;;;;4982940;28;20041;-47
2024/02/08 00:48:45;;;;;;;5.50;2.30;;;-0.60;99.90;;;;;;4965015;28;20021;-50
2024/02/08 00:51:11;;;;;;;9.65;2.63;;;-0.60;99.90;;;;;;4974752;28;20036;-50
2024/02/08 00:53:36;;;;;;;4.93;2.17;;;-0.60;99.90;;;;;;5000239;28;20025;-49
2024/02/08 00:56:02;;;;;;;3.72;2.17;;;-0.60;99.90;;;;;;4970102;28;20673;-56
2024/02/08 00:58:28;;;;;;;3.55;2.17;;;-0.60;99.90;;;;;;4963402;28;20044;-54
2024/02/08 01:00:54;;;;;;;8.40;2.55;;;-0.60;99.90;;;;;;4982911;28;20021;-54
2024/02/08 01:03:23;;;;;;;6.70;2.65;;;-0.50;99.90;;;;;;4951200;28;20041;-50
2024/02/08 01:05:52;;;;;;;8.02;2.58;;;-0.60;99.90;;;;;;4964262;28;20025;-55
2024/02/08 01:08:17;;;;;;;6.00;2.08;;;-0.50;99.90;;;;;;4979796;28;20167;-53
2024/02/08 01:10:43;;;;;;;3.28;2.25;;;-0.50;99.90;;;;;;4991151;28;20032;-48
2024/02/08 01:13:09;;;;;;;3.67;2.10;;;-0.60;99.90;;;;;;4944299;28;20040;-50
2024/02/08 01:15:37;;;;;;;8.13;2.45;;;-0.60;99.90;;;;;;4977295;28;20029;-50
2024/02/08 01:18:03;;;;;;;6.90;2.00;;;-0.50;99.90;;;;;;4941172;28;21455;-49
2024/02/08 01:20:29;;;;;;;5.72;2.30;;;-0.50;99.90;;;;;;5029005;22;21811;-63
2024/02/08 01:22:55;;;;;;;8.63;1.75;;;-0.50;99.90;;;;;;4964483;28;20565;-63
2024/02/08 01:25:21;;;;;;;6.15;2.47;;;-0.50;99.90;;;;;;4907335;28;20026;-64
2024/02/08 01:27:46;;;;;;;6.22;2.40;;;-0.50;99.90;;;;;;4919122;28;20088;-63
2024/02/08 01:30:13;;;;;;;8.02;2.40;;;-0.50;99.90;;;;;;4873832;28;22913;-63
2024/02/08 01:32:40;;;;;;;7.55;3.15;;;-0.50;99.90;;;;;;4926762;28;20631;-64
2024/02/08 01:35:06;;;;;;;7.55;2.63;;;-0.50;99.90;;;;;;4933964;28;20166;-68
2024/02/08 01:37:38;;;;;;;4.78;2.05;;;-0.50;99.90;;;;;;4918389;28;20731;-65
2024/02/08 01:40:06;;;;;;;10.93;2.05;;;-0.50;99.90;;;;;;4880537;28;20121;-65
2024/02/08 01:42:32;;;;;;;9.90;2.15;;;-0.50;99.90;;;;;;4877558;28;20029;-64
2024/02/08 01:45:31;;;;;;;7.68;2.60;;;-0.50;99.90;;;;;;4872421;28;20397;-64
2024/02/08 01:47:59;;;;;;;8.82;2.58;;;-0.50;99.90;;;;;;4913609;28;20029;-67
2024/02/08 01:50:25;;;;;;;4.82;1.88;;;-0.50;99.90;;;;;;4930112;28;21159;-63
2024/02/08 01:52:53;;;;;;;6.35;2.45;;;-0.50;99.90;;;;;;4940321;28;20096;-64
2024/02/08 01:55:21;;;;;;;4.55;2.65;;;-0.50;99.90;;;;;;4858173;28;20089;-63
2024/02/08 01:57:47;;;;;;;7.63;2.22;;;-0.50;99.90;;;;;;4879335;28;20053;-63
2024/02/08 02:00:13;;;;;;;5.55;2.42;;;-0.50;99.90;;;;;;4860933;28;21370;-65
2024/02/08 02:02:41;;;;;;;4.32;2.35;;;-0.50;99.90;;;;;;4920101;28;20029;-65
2024/02/08 02:05:17;;;;;;;7.30;2.50;;;-0.50;99.90;;;;;;4903441;28;20026;-68
2024/02/08 02:07:43;;;;;;;8.10;2.88;;;-0.50;99.90;;;;;;4941248;28;20122;-65
2024/02/08 02:10:09;;;;;;;6.43;2.47;;;-0.50;99.90;;;;;;4875884;28;20038;-64
2024/02/08 02:12:35;;;;;;;4.13;2.28;;;-0.40;99.90;;;;;;4886340;28;20447;-63
2024/02/08 02:15:04;;;;;;;7.38;2.92;;;-0.40;99.90;;;;;;4856117;28;20030;-68
2024/02/08 02:17:31;;;;;;;6.40;2.28;;;-0.40;99.90;;;;;;4921480;28;21500;-64
2024/02/08 02:20:05;;;;;;;7.72;2.75;;;-0.40;99.90;;;;;;4917292;28;20037;-63
2024/02/08 02:22:34;;;;;;;6.60;1.98;;;-0.40;99.90;;;;;;4904772;28;20022;-66
2024/02/08 02:25:00;;;;;;;5.75;2.58;;;-0.40;99.90;;;;;;4893132;28;20074;-67
2024/02/08 02:27:27;;;;;;;10.18;2.58;;;-0.40;99.90;;;;;;4886674;28;20084;-64
2024/02/08 02:29:54;;;;;;;2.60;1.70;;;-0.30;99.90;;;;;;4917733;28;20476;-67
2024/02/08 02:32:21;;;;;;;7.82;2.75;;;-0.40;99.90;;;;;;4893796;28;21657;-63
2024/02/08 02:34:53;;;;;;;7.13;2.55;;;-0.40;99.90;;;;;;4949068;28;20532;-63
2024/02/08 02:37:18;;;;;;;6.43;2.22;;;-0.40;99.90;;;;;;4885401;28;20026;-64
2024/02/08 02:39:47;;;;;;;9.32;2.20;;;-0.30;99.90;;;;;;4881916;28;20041;-64
2024/02/08 02:42:14;;;;;;;7.43;2.25;;;-0.40;99.90;;;;;;4902840;28;21603;-63
2024/02/08 02:44:40;;;;;;;5.53;1.88;;;-0.40;99.90;;;;;;4915561;28;20442;-63
2024/02/08 02:47:05;;;;;;;7.75;2.85;;;-0.40;99.90;;;;;;4913788;28;20035;-66
2024/02/08 02:49:36;;;;;;;8.57;2.42;;;-0.40;99.90;;;;;;4911764;28;20057;-62
2024/02/08 02:52:07;;;;;;;3.67;2.17;;;-0.40;99.90;;;;;;4878233;28;20026;-65
2024/02/08 02:54:34;;;;;;;6.30;2.20;;;-0.40;99.90;;;;;;4886812;28;20046;-63
2024/02/08 02:57:00;;;;;;;9.65;2.47;;;-0.40;99.90;;;;;;4874578;28;20022;-65
2024/02/08 02:59:26;;;;;;;4.90;2.42;;;-0.40;99.90;;;;;;4906129;28;20381;-63
2024/02/08 03:01:55;;;;;;;6.22;2.42;;;-0.40;99.90;;;;;;4938674;28;20027;-65
2024/02/08 03:04:21;;;;;;;5.97;2.08;;;-0.40;99.90;;;;;;4906475;28;20529;-63
2024/02/08 03:06:48;;;;;;;5.82;2.42;;;-0.40;99.90;;;;;;4870802;28;20634;-63
2024/02/08 03:09:17;;;;;;;6.85;2.38;;;-0.40;99.90;;;;;;4878278;28;21816;-62
2024/02/08 03:11:46;;;;;;;3.05;1.77;;;-0.40;99.90;;;;;;4972782;28;20035;-63
2024/02/08 03:14:11;;;;;;;8.27;2.15;;;-0.30;99.90;;;;;;4926529;28;20050;-62
2024/02/08 03:16:41;;;;;;;4.65;2.15;;;-0.30;99.90;;;;;;4932034;28;20943;-67
2024/02/08 03:19:06;;;;;;;11.80;2.40;;;-0.30;99.90;;;;;;4893866;28;20703;-65
2024/02/08 03:21:36;;;;;;;11.43;2.65;;;-0.30;99.90;;;;;;4943029;28;20040;-66
2024/02/08 03:24:09;;;;;;;5.15;2.33;;;-0.30;99.90;;;;;;4931093;28;20030;-65
2024/02/08 03:26:46;;;;;;;7.47;2.80;;;-0.30;99.90;;;;;;4971316;28;20127;-65
2024/02/08 03:29:13;;;;;;;6.38;2.63;;;-0.30;99.90;;;;;;4927784;28;20031;-65
2024/02/08 03:31:45;;;;;;;6.93;2.40;;;-0.30;99.90;;;;;;4930640;28;20014;-65
2024/02/08 03:34:24;;;;;;;4.53;2.05;;;-0.30;99.90;;;;;;4923627;28;20093;-64
2024/02/08 03:36:49;;;;;;;9.40;2.95;;;-0.30;99.90;;;;;;4881390;28;20076;-63
2024/02/08 03:39:25;;;;;;;5.60;2.10;;;-0.30;99.90;;;;;;4936367;28;21511;-63
2024/02/08 03:41:53;;;;;;;9.88;2.95;;;-0.20;99.90;;;;;;4952612;28;20034;-62
2024/02/08 03:44:21;;;;;;;9.02;3.03;;;-0.20;99.90;;;;;;4938604;28;20026;-65
2024/02/08 03:46:53;;;;;;;6.20;2.63;;;-0.20;99.90;;;;;;4927978;28;20124;-66
2024/02/08 03:49:19;;;;;;;4.50;2.30;;;-0.20;99.90;;;;;;4951205;28;20409;-64
2024/02/08 03:51:48;;;;;;;5.28;2.35;;;-0.20;99.90;;;;;;4921974;28;20042;-67
2024/02/08 03:54:16;;;;;;;8.75;2.70;;;-0.20;99.90;;;;;;4935576;28;21103;-64
2024/02/08 03:56:45;;;;;;;4.80;2.67;;;-0.10;99.90;;;;;;4969072;28;20507;-65
2024/02/08 03:59:12;;;;;;;7.97;2.70;;;-0.10;99.90;;;;;;4925723;28;20031;-65
2024/02/08 04:01:38;;;;;;;7.47;2.63;;;-0.20;99.90;;;;;;4921026;28;20027;-63
2024/02/08 04:04:12;;;;;;;5.97;2.28;;;-0.10;99.90;;;;;;4938013;28;21441;-65
2024/02/08 04:07:00;;;;;;;5.70;2.70;;;-0.10;99.90;;;;;;4928352;28;20030;-64
2024/02/08 04:09:36;;;;;;;6.20;2.72;;;-0.20;99.90;;;;;;4935678;28;20045;-66
2024/02/08 04:56:07;;;;;;;8.88;3.47;;;-0.10;99.90;;;;;;4908985;28;20084;-64
2024/02/08 04:58:33;;;;;;;4.90;2.95;;;-0.10;99.90;;;;;;4908300;28;20019;-64
2024/02/08 05:01:01;;;;;;;7.35;3.15;;;-0.10;99.90;;;;;;4889781;28;20026;-63
2024/02/08 05:03:27;;;;;;;3.88;2.65;;;0.00;99.90;;;;;;4927720;28;20026;-64
2024/02/08 05:05:54;;;;;;;7.05;3.60;;;-0.10;99.90;;;;;;4931447;28;20034;-66
2024/02/08 05:08:21;;;;;;;7.25;3.00;;;-0.10;99.90;;;;;;4886257;28;20030;-63
2024/02/08 05:10:47;;;;;;;8.27;3.45;;;-0.10;99.90;;;;;;4897875;28;20041;-64
2024/02/08 05:13:14;;;;;;;5.88;2.70;;;-0.10;99.90;;;;;;4916941;28;20062;-65
2024/02/08 05:15:39;;;;;;;5.53;3.17;;;-0.10;99.90;;;;;;4922070;28;20046;-64
2024/02/08 05:18:05;;;;;;;7.88;3.40;;;-0.10;99.90;;;;;;4891937;28;20034;-67
2024/02/08 05:20:31;;;;;;;6.25;3.50;;;-0.10;99.90;;;;;;4928244;28;21441;-63
2024/02/08 05:22:57;;;;;;;7.03;3.50;;;-0.10;99.90;;;;;;4894223;28;20030;-65
2024/02/08 05:25:22;;;;;;;7.72;3.05;;;-0.10;99.90;;;;;;4910417;28;20026;-65
2024/02/08 05:27:48;;;;;;;9.95;3.70;;;-0.10;99.90;;;;;;4900403;28;20093;-66
2024/02/08 05:30:14;;;;;;;4.97;3.42;;;-0.10;99.90;;;;;;4922262;28;22134;-65
2024/02/08 05:32:43;;;;;;;11.65;3.80;;;-0.10;99.90;;;;;;4979062;28;20030;-65
2024/02/08 05:35:13;;;;;;;10.10;3.63;;;-0.10;99.90;;;;;;4908098;28;20113;-66
2024/02/08 05:37:41;;;;;;;13.75;4.13;;;-0.10;99.90;;;;;;4909260;28;20156;-65
2024/02/08 05:40:07;;;;;;;9.00;3.72;;;-0.10;99.90;;;;;;4911076;28;20023;-64
2024/02/08 05:42:33;;;;;;;9.35;3.63;;;0.00;99.90;;;;;;4919675;28;20030;-63
2024/02/08 05:45:18;;;;;;;6.53;4.35;;;-0.10;99.90;;;;;;4947761;28;20030;-67
2024/02/08 05:47:50;;;;;;;5.53;3.38;;;-0.10;99.90;;;;;;4943208;28;20124;-64
2024/02/08 05:50:22;;;;;;;7.90;3.75;;;-0.10;99.90;;;;;;4892902;28;20479;-64
2024/02/08 05:52:51;;;;;;;6.10;3.88;;;-0.10;99.90;;;;;;4883872;28;20461;-64
2024/02/08 05:55:19;;;;;;;8.48;3.88;;;-0.10;99.90;;;;;;4881098;28;20031;-66
2024/02/08 05:57:46;;;;;;;8.55;4.03;;;0.00;99.90;;;;;;4911835;28;20196;-67
2024/02/08 06:00:32;;;;;;;7.40;4.25;;;0.00;99.90;;;;;;4915837;28;20034;-63
2024/02/08 06:03:05;;;;;;;7.22;3.70;;;0.00;99.90;;;;;;4929956;28;20061;-67
2024/02/08 06:05:31;;;;;;;17.40;4.35;;;0.00;99.90;;;;;;4953032;28;20096;-64
2024/02/08 06:08:02;;;;;;;10.25;4.07;;;0.00;99.90;;;;;;4882824;28;20495;-65
2024/02/08 06:10:52;;;;;;;10.20;3.55;;;-0.10;99.90;;;;;;4915095;28;20081;-64
2024/02/08 06:13:15;;;;;;;6.32;3.72;;;0.00;99.90;;;;;;4883674;28;20407;-64
2024/02/08 06:15:47;;;;;;;9.43;3.58;;;-0.10;99.90;;;;;;4916380;28;20037;-63
2024/02/08 06:18:30;;;;;;;7.78;3.65;;;-0.10;99.90;;;;;;4917388;28;20036;-64
2024/02/08 06:21:12;;;;;;;4.05;3.30;;;-0.10;99.90;;;;;;4955537;28;20688;-66
2024/02/08 06:23:43;;;;;;;5.78;3.17;;;-0.10;99.90;;;;;;4936282;28;20431;-64
2024/02/08 06:28:46;;;;;;;7.63;3.60;;;-0.10;99.90;;;;;;4876820;28;20089;-65
2024/02/08 06:31:18;;;;;;;8.07;3.35;;;-0.10;99.90;;;;;;4927247;28;20030;-64
2024/02/08 06:36:34;;;;;;;8.10;4.00;;;-0.20;99.90;;;;;;4945150;28;20033;-64
2024/02/08 06:39:20;;;;;;;5.78;3.15;;;-0.10;99.90;;;;;;4963011;28;20388;-65
2024/02/08 06:41:55;;;;;;;5.82;3.55;;;-0.10;99.90;;;;;;4948425;28;20614;-64
2024/02/08 07:39:30;;;;;;;7.35;5.45;;;-0.10;99.90;;;;;;4954138;28;20097;-67
2024/02/08 07:41:56;;;;;;;9.70;5.78;;;-0.10;99.90;;;;;;4930491;28;20014;-65
2024/02/08 07:44:22;;;;;;;12.02;6.32;;;-0.10;99.90;;;;;;4880379;28;20088;-65
2024/02/08 07:46:54;;;;;;;8.27;6.03;;;-0.10;99.90;;;;;;4898765;28;20129;-64
2024/02/08 07:49:39;;;;;;;10.73;6.32;;;-0.10;99.90;;;;;;4882323;28;20025;-65
2024/02/08 07:52:14;;;;;;;11.15;6.85;;;-0.10;99.90;;;;;;4911936;28;20028;-65
2024/02/08 07:54:42;;;;;;;10.95;6.13;;;-0.10;99.90;;;;;;4952553;28;20025;-65
2024/02/08 07:57:11;;;;;;;9.52;5.15;;;0.00;99.90;;;;;;4899114;28;20695;-67
2024/02/08 07:59:39;;;;;;;8.82;4.85;;;0.00;99.90;;;;;;4954624;28;20076;-66
2024/02/08 08:02:12;;;;;;;7.28;4.80;;;0.00;99.90;;;;;;4907725;28;20157;-66
2024/02/08 08:05:01;;;;;;;11.27;4.53;;;0.00;99.90;;;;;;4893371;28;20038;-66
2024/02/08 08:07:27;;;;;;;11.82;5.45;;;0.00;99.90;;;;;;4906414;28;20026;-65
2024/02/08 08:10:08;;;;;;;9.38;5.70;;;0.10;99.90;;;;;;4895001;28;20030;-67
2024/02/08 08:12:37;;;;;;;10.93;5.82;;;0.10;99.90;;;;;;4934562;28;20030;-66
2024/02/08 08:17:40;;;;;;;11.02;5.93;;;0.20;99.90;;;;;;4898184;28;20022;-65
2024/02/08 08:20:15;;;;;;;13.10;5.47;;;0.20;99.90;;;;;;4872183;28;20026;-66
2024/02/08 08:23:00;;;;;;;8.50;6.05;;;0.20;99.90;;;;;;4870811;28;20033;-65
2024/02/08 08:25:28;;;;;;;11.82;5.70;;;0.30;99.90;;;;;;4897450;28;20383;-66
2024/02/08 08:28:10;;;;;;;10.90;5.53;;;0.30;99.90;;;;;;4912557;28;20030;-67
2024/02/08 08:30:38;;;;;;;13.50;5.45;;;0.30;99.90;;;;;;4949613;28;20018;-64
2024/02/08 08:41:00;;;;;;;9.02;3.97;;;0.40;99.90;;;;;;4863119;28;20125;-64
2024/02/08 08:43:26;;;;;;;6.63;4.63;;;0.50;99.90;;;;;;4900499;28;20047;-63
2024/02/08 08:45:59;;;;;;;7.93;4.63;;;0.50;99.90;;;;;;4931472;28;20026;-64
2024/02/08 08:48:31;;;;;;;8.00;5.28;;;0.50;99.90;;;;;;4925480;28;22251;-64
2024/02/08 08:50:58;;;;;;;8.40;5.03;;;0.60;99.90;;;;;;4956853;28;20113;-66
2024/02/08 08:53:28;;;;;;;9.43;4.93;;;0.60;99.90;;;;;;4897672;28;20022;-64
2024/02/08 08:55:57;;;;;;;6.40;4.78;;;0.60;99.90;;;;;;4901022;28;20014;-64
2024/02/08 08:58:38;;;;;;;13.25;6.07;;;0.70;99.90;;;;;;4914701;28;20443;-64
2024/02/08 09:01:15;;;;;;;21.88;4.97;;;0.70;99.90;;;;;;4899238;28;20034;-65
2024/02/08 09:03:44;;;;;;;11.73;4.50;;;0.70;99.90;;;;;;4925442;28;20501;-65
2024/02/08 09:06:13;;;;;;;6.18;4.45;;;0.70;99.90;;;;;;4914752;28;20030;-66
2024/02/08 09:08:45;;;;;;;9.95;4.43;;;0.80;99.90;;;;;;4949426;28;20031;-65
2024/02/08 09:11:14;;;;;;;8.63;4.20;;;0.80;99.90;;;;;;4895338;28;20503;-65
2024/02/08 09:13:42;;;;;;;9.00;3.88;;;0.90;99.90;;;;;;4912236;28;20031;-65
2024/02/08 09:21:33;;;;;;;8.27;4.18;;;0.90;99.90;;;;;;4918266;28;21424;-65
2024/02/08 09:24:04;;;;;;;11.80;4.35;;;1.00;99.90;;;;;;4944265;28;20027;-65
2024/02/08 09:26:48;;;;;;;9.32;3.85;;;1.00;99.90;;;;;;4898231;28;20443;-65
2024/02/08 09:29:23;;;;;;;7.65;4.22;;;1.00;99.90;;;;;;4892805;28;20041;-65
2024/02/08 09:31:56;;;;;;;6.55;3.90;;;1.10;99.90;;;;;;4888034;28;20406;-65
2024/02/08 09:34:40;;;;;;;9.02;4.13;;;1.10;99.90;;;;;;4893333;28;20026;-65
2024/02/08 09:37:06;;;;;;;8.32;4.00;;;1.20;99.90;;;;;;4882195;28;20080;-65
2024/02/08 09:39:53;;;;;;;9.50;3.92;;;1.30;99.90;;;;;;4911498;28;21692;-65
2024/02/08 09:42:26;;;;;;;6.85;4.05;;;1.30;99.90;;;;;;4884141;28;20029;-66
2024/02/08 09:44:56;;;;;;;7.43;4.18;;;1.30;99.90;;;;;;4936146;28;20180;-66
2024/02/08 09:47:31;;;;;;;9.40;4.43;;;1.40;99.90;;;;;;4887863;28;20030;-66
2024/02/08 09:50:00;;;;;;;6.57;4.47;;;1.50;99.90;;;;;;4883622;28;20038;-66
2024/02/08 09:52:40;;;;;;;11.43;3.78;;;1.50;99.90;;;;;;4897603;28;20030;-65
2024/02/08 09:55:08;;;;;;;8.07;4.05;;;1.60;99.90;;;;;;4871272;28;20057;-66
2024/02/08 09:57:45;;;;;;;11.57;4.28;;;1.60;99.90;;;;;;4908807;28;21720;-65
2024/02/08 10:00:34;;;;;;;6.47;3.88;;;1.70;99.90;;;;;;4890420;28;20027;-67
2024/02/08 10:03:06;;;;;;;6.97;4.30;;;1.70;99.90;;;;;;4931422;28;20032;-65
2024/02/08 10:05:52;;;;;;;10.35;4.50;;;1.80;99.90;;;;;;4928602;28;20026;-64
2024/02/08 10:08:28;;;;;;;11.63;3.90;;;1.90;99.90;;;;;;4889146;28;20443;-65
2024/02/08 10:11:11;;;;;;;11.63;4.25;;;1.90;99.90;;;;;;4871678;28;20030;-65
2024/02/08 10:16:30;;;;;;;8.55;3.92;;;2.00;99.90;;;;;;4878564;28;20583;-66
2024/02/08 10:19:23;;;;;;;11.25;4.85;;;2.10;99.90;;;;;;4888967;28;20036;-67
2024/02/08 10:21:57;;;;;;;7.28;3.75;;;2.10;99.90;;;;;;4899259;28;20537;-65
2024/02/08 10:24:44;;;;;;;11.98;3.90;;;2.30;99.90;;;;;;4883623;28;21265;-65
2024/02/08 10:27:22;;;;;;;31.30;15.85;;;2.30;99.90;;;;;;4895969;28;20026;-66
2024/02/08 10:29:51;;;;;;;17.55;10.23;;;2.30;99.90;;;;;;4920666;28;20329;-65
2024/02/08 10:32:19;;;;;;;7.60;5.07;;;2.40;99.90;;;;;;4856475;28;20041;-65
2024/02/08 10:34:46;;;;;;;18.27;4.80;;;2.40;99.90;;;;;;4864025;28;20058;-66
2024/02/08 10:39:59;;;;;;;14.60;8.32;;;2.50;99.90;;;;;;4878281;28;20100;-66
2024/02/08 10:42:29;;;;;;;7.43;4.40;;;2.50;99.90;;;;;;4923679;28;21357;-65
2024/02/08 10:45:05;;;;;;;10.55;3.67;;;2.60;99.90;;;;;;4925698;28;20041;-65
2024/02/08 10:47:39;;;;;;;6.25;3.97;;;2.60;99.90;;;;;;4906519;28;20539;-66
2024/02/08 10:50:19;;;;;;;9.65;3.60;;;2.70;99.90;;;;;;4917643;28;22363;-66
2024/02/08 10:52:49;;;;;;;13.73;5.68;;;2.70;99.90;;;;;;4941669;28;20038;-68
2024/02/08 10:55:18;;;;;;;8.18;4.38;;;2.80;99.90;;;;;;4925749;28;21712;-65
2024/02/08 11:03:08;;;;;;;7.20;3.97;;;2.90;99.90;;;;;;4926487;28;20118;-65
2024/02/08 11:08:24;;;;;;;9.82;3.85;;;3.00;99.90;;;;;;4920304;28;20057;-65
2024/02/08 11:10:58;;;;;;;6.05;4.13;;;3.00;99.90;;;;;;4904235;28;20034;-65
2024/02/08 11:13:29;;;;;;;5.78;3.78;;;3.10;99.90;;;;;;4917782;28;20038;-66
2024/02/08 11:16:11;;;;;;;10.23;5.03;;;3.10;99.90;;;;;;4961752;28;20023;-67
2024/02/08 11:18:38;;;;;;;9.63;4.15;;;3.10;99.90;;;;;;4960138;28;20525;-65
2024/02/08 11:21:04;;;;;;;11.50;4.05;;;3.20;99.90;;;;;;4905433;28;20038;-66
2024/02/08 11:23:32;;;;;;;14.15;4.70;;;3.20;99.90;;;;;;4926133;28;20035;-66
2024/02/08 11:26:06;;;;;;;9.18;4.40;;;3.20;99.90;;;;;;4899606;28;20038;-67
2024/02/08 11:28:44;;;;;;;10.50;4.25;;;3.20;99.90;;;;;;4915531;28;20037;-66
2024/02/08 11:31:16;;;;;;;10.20;4.05;;;3.30;99.90;;;;;;4917005;28;20042;-66
2024/02/08 11:33:42;;;;;;;11.55;3.75;;;3.30;99.90;;;;;;4923912;28;20026;-65
2024/02/08 11:36:21;;;;;;;7.35;3.42;;;3.30;99.90;;;;;;4914920;28;20462;-66
2024/02/08 11:38:53;;;;;;;8.02;3.88;;;3.30;99.90;;;;;;4898950;28;20034;-67
2024/02/08 11:41:25;;;;;;;6.65;4.10;;;3.30;99.90;;;;;;4837770;28;20185;-66
2024/02/08 11:44:02;;;;;;;13.27;3.55;;;3.30;99.90;;;;;;4910310;28;21233;-67
2024/02/08 11:46:37;;;;;;;7.43;3.33;;;3.30;99.90;;;;;;4940490;28;20080;-66
2024/02/08 11:49:15;;;;;;;12.00;4.30;;;3.40;99.90;;;;;;4934450;28;20513;-67
2024/02/08 11:51:41;;;;;;;7.05;3.08;;;3.40;99.90;;;;;;4976289;28;20486;-67
2024/02/08 11:54:09;;;;;;;9.82;4.35;;;3.40;99.90;;;;;;4933236;28;20113;-66
2024/02/08 11:56:34;;;;;;;8.35;3.65;;;3.40;99.90;;;;;;4889151;28;20023;-66
2024/02/08 11:59:05;;;;;;;9.70;3.88;;;3.40;99.90;;;;;;4850476;28;20037;-66
2024/02/08 12:01:32;;;;;;;6.30;3.90;;;3.40;99.90;;;;;;4935868;28;20026;-66
2024/02/08 12:03:59;;;;;;;9.75;4.88;;;3.40;99.90;;;;;;4927656;28;20052;-68
2024/02/08 12:06:26;;;;;;;11.43;4.95;;;3.50;99.90;;;;;;4926102;28;20026;-66
2024/02/08 12:09:02;;;;;;;16.42;8.43;;;3.50;99.90;;;;;;4893558;28;20113;-67
2024/02/08 12:11:32;;;;;;;15.63;8.93;;;3.50;99.90;;;;;;4900949;28;20023;-66
2024/02/08 12:14:06;;;;;;;24.13;10.70;;;3.50;99.90;;;;;;4902145;28;20033;-66
2024/02/08 12:16:33;;;;;;;19.77;9.93;;;3.50;99.90;;;;;;4891378;28;20506;-66
2024/02/08 12:19:05;;;;;;;9.10;5.60;;;3.60;99.90;;;;;;4919582;28;20034;-68
2024/02/08 12:21:35;;;;;;;8.48;4.80;;;3.60;99.90;;;;;;4897106;28;21526;-66
2024/02/08 12:24:03;;;;;;;5.75;3.80;;;3.60;99.90;;;;;;4923232;28;20065;-66
2024/02/08 12:26:31;;;;;;;7.47;3.65;;;3.70;99.90;;;;;;4903287;28;20042;-67
2024/02/08 12:29:02;;;;;;;7.15;3.42;;;3.70;99.90;;;;;;4897420;28;20117;-66
2024/02/08 12:31:34;;;;;;;9.45;3.63;;;3.70;99.90;;;;;;4925100;28;20096;-66
2024/02/08 12:34:03;;;;;;;6.32;3.17;;;3.70;99.90;;;;;;4927415;28;20053;-68
2024/02/08 12:36:31;;;;;;;6.65;3.65;;;3.70;99.90;;;;;;4970095;28;20042;-66
2024/02/08 12:39:00;;;;;;;8.10;3.67;;;3.70;99.90;;;;;;4886042;28;20113;-65
2024/02/08 12:41:29;;;;;;;10.57;6.93;;;3.70;99.90;;;;;;4896554;28;20478;-65
2024/02/08 12:43:56;;;;;;;12.80;7.28;;;3.70;99.90;;;;;;4918092;28;20026;-65
2024/02/08 12:46:22;;;;;;;7.78;4.20;;;3.70;99.90;;;;;;4914832;28;20092;-66
2024/02/08 12:48:48;;;;;;;7.43;4.57;;;3.70;99.90;;;;;;4961950;28;20030;-65
2024/02/08 12:51:23;;;;;;;5.88;3.50;;;3.70;99.90;;;;;;4886610;28;20561;-65
2024/02/08 12:53:56;;;;;;;9.77;3.75;;;3.70;99.90;;;;;;4900344;28;20077;-65
2024/02/08 12:56:22;;;;;;;7.57;4.13;;;3.70;99.90;;;;;;4869887;28;20022;-65
2024/02/08 12:59:03;;;;;;;12.63;5.82;;;3.70;99.90;;;;;;4887906;28;20035;-67
2024/02/08 13:01:47;;;;;;;14.95;6.28;;;3.80;99.90;;;;;;4910264;28;20498;-65
2024/02/08 13:04:19;;;;;;;12.85;5.85;;;3.70;99.90;;;;;;4886402;28;20410;-66
2024/02/08 13:06:48;;;;;;;12.45;6.45;;;3.80;99.90;;;;;;4972901;28;20410;-66
2024/02/08 13:09:25;;;;;;;10.48;6.45;;;3.80;99.90;;;;;;4885838;28;20050;-66
2024/02/08 13:12:14;;;;;;;16.13;7.13;;;3.80;99.90;;;;;;4895413;28;20464;-65
2024/02/08 13:14:56;;;;;;;5.75;3.75;;;3.80;99.90;;;;;;4884933;28;20410;-65
2024/02/08 13:17:25;;;;;;;3.85;2.38;;;3.80;99.90;;;;;;4894648;28;20026;-66
2024/02/08 13:19:55;;;;;;;4.50;3.20;;;3.90;99.90;;;;;;4875648;28;20031;-64
2024/02/08 13:22:26;;;;;;;6.53;3.42;;;3.90;99.90;;;;;;4928044;28;20788;-66
2024/02/08 13:24:52;;;;;;;15.77;7.47;;;3.90;99.90;;;;;;4936720;28;20266;-66
2024/02/08 13:27:28;;;;;;;16.02;6.18;;;3.90;99.90;;;;;;4893853;28;20034;-66
2024/02/08 13:29:54;;;;;;;12.50;6.60;;;3.90;99.90;;;;;;4906629;28;20567;-66
2024/02/08 13:32:27;;;;;;;11.00;4.15;;;3.90;99.90;;;;;;4887281;28;20041;-66
2024/02/08 13:34:53;;;;;;;5.75;2.28;;;3.90;99.90;;;;;;4930269;28;20059;-66
2024/02/08 13:37:22;;;;;;;5.63;2.72;;;3.90;99.90;;;;;;4935580;28;20018;-66
2024/02/08 13:39:59;;;;;;;3.95;2.42;;;3.90;99.90;;;;;;4949574;28;20575;-65
2024/02/08 13:42:26;;;;;;;5.93;2.85;;;3.90;99.90;;;;;;4903321;28;20022;-66
2024/02/08 13:44:57;;;;;;;9.48;4.53;;;3.90;99.90;;;;;;4921121;28;20031;-66
2024/02/08 13:47:25;;;;;;;19.23;5.95;;;3.90;99.90;;;;;;4937673;28;20037;-65
2024/02/08 13:49:53;;;;;;;12.98;5.32;;;3.90;99.90;;;;;;4947758;28;20034;-66
2024/02/08 13:52:19;;;;;;;10.40;4.45;;;3.90;99.90;;;;;;4938855;28;20022;-66
2024/02/08 13:54:48;;;;;;;6.00;2.67;;;3.90;99.90;;;;;;4964542;28;20097;-65
2024/02/08 13:57:14;;;;;;;9.60;3.55;;;3.90;99.90;;;;;;4916000;28;20066;-65
2024/02/08 13:59:46;;;;;;;7.57;4.32;;;3.90;99.90;;;;;;4896429;28;20537;-66
2024/02/08 14:02:15;;;;;;;11.35;5.25;;;3.90;99.90;;;;;;4894449;28;20793;-66
2024/02/08 14:04:46;;;;;;;8.30;4.00;;;3.90;99.90;;;;;;4947395;28;20122;-66
2024/02/08 14:07:15;;;;;;;12.30;5.25;;;3.90;99.90;;;;;;4912135;28;20082;-66
2024/02/08 14:09:43;;;;;;;11.45;4.85;;;3.90;99.90;;;;;;4928354;28;20018;-67
2024/02/08 14:12:09;;;;;;;10.50;5.28;;;3.90;99.90;;;;;;4893087;28;20092;-66
2024/02/08 14:14:41;;;;;;;10.00;4.28;;;3.80;99.90;;;;;;4914335;28;20022;-65
2024/02/08 14:17:10;;;;;;;6.28;3.55;;;3.80;99.90;;;;;;4893988;28;20668;-65
2024/02/08 14:19:37;;;;;;;3.60;2.90;;;3.80;99.90;;;;;;4946084;28;20026;-65
2024/02/08 14:22:06;;;;;;;9.02;3.53;;;3.80;99.90;;;;;;4933487;28;20173;-66
2024/02/08 14:24:38;;;;;;;11.00;3.47;;;3.80;99.90;;;;;;4961126;28;20567;-67
2024/02/08 14:27:05;;;;;;;6.90;3.95;;;3.80;99.90;;;;;;4904508;28;20418;-66
2024/02/08 14:29:37;;;;;;;10.27;3.95;;;3.80;99.90;;;;;;4884160;28;20033;-65
2024/02/08 14:32:04;;;;;;;6.68;3.80;;;3.80;99.90;;;;;;4901436;28;20022;-65
2024/02/08 14:34:35;;;;;;;9.27;4.72;;;3.80;99.90;;;;;;4940154;28;21039;-66
2024/02/08 14:37:05;;;;;;;10.02;4.00;;;3.80;99.90;;;;;;4932077;28;20599;-66
2024/02/08 14:39:34;;;;;;;10.48;4.75;;;3.80;99.90;;;;;;4905042;28;20026;-65
2024/02/08 14:42:11;;;;;;;9.30;4.13;;;3.80;99.90;;;;;;4895212;28;20030;-66
2024/02/08 14:44:51;;;;;;;;;;;3.70;99.90;;;;;;4890214;28;20568;-66
2024/02/08 14:47:21;;;;;;;12.27;3.92;;;3.70;99.90;;;;;;4918003;28;19917;-67
2024/02/08 14:50:00;;;;;;;10.43;4.68;;;3.70;99.90;;;;;;4922715;28;20097;-67
2024/02/08 14:52:34;;;;;;;10.63;4.35;;;3.70;99.90;;;;;;4940337;28;21834;-66
2024/02/08 14:55:19;;;;;;;7.03;3.78;;;3.70;99.90;;;;;;4937955;28;20613;-66
2024/02/08 14:57:45;;;;;;;4.28;2.88;;;3.70;99.90;;;;;;4963097;28;20394;-65
2024/02/08 15:03:07;;;;;;;7.00;3.55;;;3.70;99.90;;;;;;4898573;28;20040;-64
2024/02/08 15:05:59;;;;;;;4.68;3.40;;;3.60;99.90;;;;;;4892240;28;20018;-65
2024/02/08 15:11:03;;;;;;;8.60;3.70;;;3.60;99.90;;;;;;4930462;28;20034;-65
2024/02/08 15:13:38;;;;;;;3.63;2.25;;;3.50;99.90;;;;;;4937409;28;21459;-65
2024/02/08 15:16:07;;;;;;;7.22;2.85;;;3.50;99.90;;;;;;4926083;28;20125;-65
2024/02/08 15:18:47;;;;;;;7.45;2.22;;;3.50;99.90;;;;;;4916862;28;20034;-65
2024/02/08 15:21:23;;;;;;;4.00;2.17;;;3.50;99.90;;;;;;4877965;28;20091;-66
2024/02/08 15:26:37;;;;;;;;;;;3.50;99.90;;;;;;4876291;28;20584;-66
2024/02/08 15:29:09;;;;;;;7.18;1.80;;;3.50;99.90;;;;;;4909167;28;20385;-66